createdAt,value
2023-08-17T00:00:23.810Z,14.01
2023-08-17T00:02:50.615Z,13.94
2023-08-17T00:05:17.177Z,13.89
2023-08-17T00:07:43.665Z,13.84
2023-08-17T00:10:10.629Z,13.81
2023-08-17T00:12:37.125Z,13.77
2023-08-17T00:15:04.021Z,13.74
2023-08-17T00:17:31.310Z,13.75
2023-08-17T00:19:57.977Z,13.72
2023-08-17T00:22:24.616Z,13.66
2023-08-17T00:24:51.126Z,13.66
2023-08-17T00:27:17.648Z,13.59
2023-08-17T00:29:44.362Z,13.58
2023-08-17T00:32:10.886Z,13.62
2023-08-17T00:34:37.337Z,13.56
2023-08-17T00:37:04.214Z,13.55
2023-08-17T00:39:30.703Z,13.48
2023-08-17T00:41:57.203Z,13.49
2023-08-17T00:44:23.713Z,13.45
2023-08-17T00:46:50.276Z,13.43
2023-08-17T00:49:16.866Z,13.42
2023-08-17T00:51:43.317Z,13.38
2023-08-17T00:54:11.274Z,13.29
2023-08-17T00:56:38.219Z,13.26
2023-08-17T00:59:05.488Z,13.23
2023-08-17T01:01:32.156Z,13.25
2023-08-17T01:03:58.871Z,13.22
2023-08-17T01:06:25.360Z,13.29
2023-08-17T01:08:51.823Z,13.27
2023-08-17T01:11:37.294Z,13.22
2023-08-17T01:14:11.033Z,13.17
2023-08-17T01:16:47.046Z,13.11
2023-08-17T01:19:18.227Z,13.17
2023-08-17T01:21:51.377Z,13.17
2023-08-17T01:24:17.943Z,13.13
2023-08-17T01:26:44.388Z,13.15
2023-08-17T01:29:10.927Z,13.15
2023-08-17T01:32:06.016Z,13.17
2023-08-17T01:34:35.517Z,13.22
2023-08-17T01:37:07.298Z,13.16
2023-08-17T01:39:45.280Z,13.13
2023-08-17T01:42:14.073Z,13.11
2023-08-17T01:44:41.036Z,13.08
2023-08-17T01:47:07.643Z,13.08
2023-08-17T01:49:34.235Z,13.08
2023-08-17T01:52:01.977Z,13.02
2023-08-17T01:54:28.544Z,13.03
2023-08-17T01:56:55.104Z,13.01
2023-08-17T01:59:21.657Z,12.98
2023-08-17T02:01:48.141Z,12.93
2023-08-17T02:04:15.618Z,12.96
2023-08-17T02:06:42.113Z,13.00
2023-08-17T02:09:08.562Z,12.99
2023-08-17T02:11:35.045Z,13.00
2023-08-17T02:14:01.508Z,12.99
2023-08-17T02:16:28.013Z,13.04
2023-08-17T02:18:54.570Z,13.05
2023-08-17T02:21:21.087Z,13.13
2023-08-17T02:23:47.660Z,13.09
2023-08-17T02:26:14.200Z,13.05
2023-08-17T02:28:40.722Z,13.02
2023-08-17T02:31:07.639Z,13.04
2023-08-17T02:33:34.791Z,13.00
2023-08-17T02:36:02.500Z,13.00
2023-08-17T02:38:29.096Z,12.99
2023-08-17T02:40:55.611Z,12.98
2023-08-17T02:43:22.108Z,12.98
2023-08-17T02:45:48.595Z,12.96
2023-08-17T02:48:15.046Z,13.08
2023-08-17T02:50:41.580Z,13.03
2023-08-17T02:53:08.075Z,13.01
2023-08-17T02:55:34.796Z,12.96
2023-08-17T02:58:01.282Z,12.95
2023-08-17T03:00:27.798Z,12.97
2023-08-17T03:02:55.115Z,12.96
2023-08-17T03:05:21.750Z,12.97
2023-08-17T03:07:48.209Z,12.91
2023-08-17T03:10:14.974Z,12.91
2023-08-17T03:12:41.508Z,12.86
2023-08-17T03:15:08.148Z,12.77
2023-08-17T03:17:34.743Z,12.75
2023-08-17T03:20:01.312Z,12.80
2023-08-17T03:22:28.065Z,12.82
2023-08-17T03:24:56.618Z,12.77
2023-08-17T03:27:23.575Z,12.76
2023-08-17T03:29:50.287Z,12.83
2023-08-17T03:32:16.779Z,12.86
2023-08-17T03:34:43.298Z,12.80
2023-08-17T03:37:09.741Z,12.75
2023-08-17T03:39:36.287Z,12.69
2023-08-17T03:42:02.972Z,12.60
2023-08-17T03:44:29.413Z,12.56
2023-08-17T03:46:55.919Z,12.59
2023-08-17T03:49:22.784Z,12.57
2023-08-17T03:51:49.253Z,12.64
2023-08-17T03:54:15.734Z,12.69
2023-08-17T03:56:42.210Z,12.63
2023-08-17T03:59:08.672Z,12.53
2023-08-17T04:01:35.172Z,12.43
2023-08-17T04:04:01.641Z,12.44
2023-08-17T04:06:28.103Z,12.42
2023-08-17T04:08:54.575Z,12.47
2023-08-17T04:11:21.020Z,12.43
2023-08-17T04:13:47.471Z,12.47
2023-08-17T04:16:14.034Z,12.55
2023-08-17T04:18:40.659Z,12.55
2023-08-17T04:21:07.227Z,12.44
2023-08-17T04:23:33.694Z,12.44
2023-08-17T04:26:00.184Z,12.47
2023-08-17T04:28:26.681Z,12.47
2023-08-17T04:30:53.181Z,12.56
2023-08-17T04:33:19.728Z,12.59
2023-08-17T04:35:49.356Z,12.56
2023-08-17T04:38:15.841Z,12.59
2023-08-17T04:40:42.650Z,12.60
2023-08-17T04:43:10.992Z,12.66
2023-08-17T04:45:38.178Z,12.71
2023-08-17T04:48:05.621Z,12.73
2023-08-17T04:50:32.111Z,12.78
2023-08-17T04:52:58.668Z,12.87
2023-08-17T04:55:25.177Z,12.91
2023-08-17T04:57:51.604Z,13.03
2023-08-17T05:00:18.750Z,13.08
2023-08-17T05:02:45.457Z,13.13
2023-08-17T05:05:12.059Z,13.27
2023-08-17T05:07:38.554Z,13.39
2023-08-17T05:10:05.287Z,13.42
2023-08-17T05:12:31.815Z,13.44
2023-08-17T05:14:58.320Z,13.48
2023-08-17T05:17:25.057Z,13.51
2023-08-17T05:19:52.619Z,13.65
2023-08-17T05:22:19.205Z,13.77
2023-08-17T05:24:45.680Z,13.87
2023-08-17T05:27:12.227Z,13.95
2023-08-17T05:29:38.799Z,13.99
2023-08-17T05:32:05.730Z,14.10
2023-08-17T05:34:32.317Z,14.25
2023-08-17T05:36:58.933Z,14.37
2023-08-17T05:39:25.793Z,14.49
2023-08-17T05:41:52.396Z,14.60
2023-08-17T05:44:19.154Z,14.76
2023-08-17T05:46:45.765Z,14.91
2023-08-17T05:49:12.292Z,15.05
2023-08-17T05:51:38.856Z,15.28
2023-08-17T05:54:05.612Z,15.53
2023-08-17T05:56:32.544Z,15.73
2023-08-17T05:58:59.060Z,16.05
2023-08-17T06:01:25.578Z,16.19
2023-08-17T06:03:52.100Z,16.57
2023-08-17T06:06:18.572Z,16.88
2023-08-17T06:08:45.170Z,16.99
2023-08-17T06:11:11.650Z,17.08
2023-08-17T06:13:38.154Z,17.14
2023-08-17T06:16:04.905Z,17.33
2023-08-17T06:18:32.030Z,17.51
2023-08-17T06:20:58.491Z,17.58
2023-08-17T06:23:25.206Z,17.76
2023-08-17T06:25:51.942Z,17.64
2023-08-17T06:28:18.458Z,17.93
2023-08-17T06:30:44.945Z,17.90
2023-08-17T06:33:11.409Z,17.92
2023-08-17T06:35:37.896Z,18.08
2023-08-17T06:38:04.576Z,18.32
2023-08-17T06:40:31.144Z,17.92
2023-08-17T06:42:57.652Z,18.45
2023-08-17T06:45:24.200Z,18.70
2023-08-17T06:47:50.866Z,18.46
2023-08-17T06:50:17.483Z,18.28
2023-08-17T06:52:44.109Z,18.51
2023-08-17T06:55:11.594Z,18.75
2023-08-17T06:57:38.162Z,18.97
2023-08-17T07:00:08.722Z,19.48
2023-08-17T07:02:50.967Z,19.65
2023-08-17T07:05:20.457Z,19.07
2023-08-17T07:07:47.103Z,19.19
2023-08-17T07:10:13.592Z,19.71
2023-08-17T07:12:40.771Z,20.15
2023-08-17T07:15:08.634Z,20.15
2023-08-17T07:17:35.605Z,20.75
2023-08-17T07:22:32.081Z,20.81
2023-08-17T07:24:58.733Z,20.98
2023-08-17T07:27:25.776Z,20.04
2023-08-17T07:29:52.648Z,19.61
2023-08-17T07:32:20.108Z,19.57
2023-08-17T07:34:46.608Z,19.40
2023-08-17T07:37:15.689Z,19.02
2023-08-17T07:39:42.927Z,19.01
2023-08-17T07:42:09.802Z,19.14
2023-08-17T07:44:36.737Z,19.03
2023-08-17T07:47:03.380Z,18.92
2023-08-17T07:49:32.557Z,18.95
2023-08-17T07:51:59.461Z,18.69
2023-08-17T07:54:26.042Z,18.87
2023-08-17T07:56:52.568Z,18.74
2023-08-17T07:59:19.012Z,18.78
2023-08-17T08:01:45.607Z,19.20
2023-08-17T08:04:12.259Z,19.24
2023-08-17T08:06:38.785Z,19.27
2023-08-17T08:09:05.470Z,19.65
2023-08-17T08:11:31.981Z,20.13
2023-08-17T08:13:58.769Z,19.31
2023-08-17T08:16:25.325Z,18.94
2023-08-17T08:18:51.774Z,18.76
2023-08-17T08:21:18.285Z,18.71
2023-08-17T08:23:44.682Z,19.58
2023-08-17T08:26:11.192Z,19.59
2023-08-17T08:28:37.729Z,19.51
2023-08-17T08:31:04.906Z,19.62
2023-08-17T08:33:32.069Z,19.92
2023-08-17T08:35:58.530Z,20.26
2023-08-17T08:38:25.490Z,20.89
2023-08-17T08:40:52.356Z,21.25
2023-08-17T08:43:19.213Z,20.50
2023-08-17T08:45:46.846Z,20.94
2023-08-17T08:48:15.410Z,20.73
2023-08-17T08:50:42.602Z,20.31
2023-08-17T08:53:15.775Z,19.92
2023-08-17T08:55:53.063Z,20.42
2023-08-17T08:58:20.224Z,21.39
2023-08-17T09:00:48.600Z,20.79
2023-08-17T09:03:19.319Z,20.47
2023-08-17T09:05:50.842Z,20.24
2023-08-17T09:08:22.355Z,19.95
2023-08-17T09:10:51.864Z,19.87
2023-08-17T09:13:18.441Z,20.25
2023-08-17T09:15:44.965Z,20.40
2023-08-17T09:18:13.748Z,20.72
2023-08-17T09:20:47.293Z,21.44
2023-08-17T09:23:17.944Z,22.52
2023-08-17T09:25:46.275Z,22.13
2023-08-17T09:28:15.686Z,20.93
2023-08-17T09:30:56.482Z,21.89
2023-08-17T09:33:27.827Z,21.52
2023-08-17T09:35:59.461Z,21.61
2023-08-17T09:38:28.437Z,21.66
2023-08-17T09:40:55.733Z,21.73
2023-08-17T09:43:22.432Z,21.78
2023-08-17T09:45:51.086Z,21.45
2023-08-17T09:48:18.839Z,21.49
2023-08-17T09:50:47.240Z,21.80
2023-08-17T09:53:20.264Z,21.46
2023-08-17T09:55:47.546Z,21.99
2023-08-17T09:58:17.581Z,21.68
2023-08-17T10:00:50.446Z,21.01
2023-08-17T10:03:19.540Z,20.91
2023-08-17T10:05:55.688Z,20.62
2023-08-17T10:08:24.212Z,20.43
2023-08-17T10:10:56.610Z,20.79
2023-08-17T10:13:36.235Z,21.58
2023-08-17T10:16:30.189Z,21.59
2023-08-17T10:19:24.057Z,22.13
2023-08-17T10:22:30.567Z,21.82
2023-08-17T10:25:00.414Z,21.12
2023-08-17T10:27:27.901Z,20.83
2023-08-17T10:29:54.992Z,21.46
2023-08-17T10:32:23.370Z,22.04
2023-08-17T10:34:52.215Z,21.51
2023-08-17T10:37:20.201Z,21.59
2023-08-17T10:39:48.100Z,21.86
2023-08-17T10:44:49.173Z,22.31
2023-08-17T10:47:26.009Z,22.05
2023-08-17T10:50:00.646Z,22.46
2023-08-17T10:52:38.408Z,22.62
2023-08-17T10:55:11.110Z,22.62
2023-08-17T10:57:40.045Z,22.40
2023-08-17T11:00:33.054Z,22.33
2023-08-17T11:03:12.340Z,22.62
2023-08-17T11:05:43.419Z,22.86
2023-08-17T11:08:14.877Z,22.42
2023-08-17T11:10:41.569Z,22.88
2023-08-17T11:13:08.479Z,23.06
2023-08-17T11:15:39.045Z,23.32
2023-08-17T11:18:09.910Z,23.54
2023-08-17T11:20:39.357Z,23.49
2023-08-17T11:23:10.129Z,23.37
2023-08-17T11:25:38.512Z,23.15
2023-08-17T11:28:08.141Z,23.16
2023-08-17T11:30:36.755Z,22.95
2023-08-17T11:33:03.735Z,23.25
2023-08-17T11:35:30.197Z,23.40
2023-08-17T11:37:56.626Z,23.46
2023-08-17T11:40:23.444Z,23.13
2023-08-17T11:42:50.247Z,23.29
2023-08-17T11:45:16.910Z,23.58
2023-08-17T11:47:44.586Z,23.50
2023-08-17T11:50:20.579Z,23.59
2023-08-17T11:52:48.368Z,23.94
2023-08-17T11:55:19.064Z,23.82
2023-08-17T11:57:46.080Z,23.88
2023-08-17T12:00:22.669Z,23.88
2023-08-17T12:02:50.396Z,24.25
2023-08-17T12:05:22.868Z,24.53
2023-08-17T12:07:49.437Z,24.81
2023-08-17T12:10:16.154Z,24.01
2023-08-17T12:12:42.775Z,23.42
2023-08-17T12:15:12.889Z,23.13
2023-08-17T12:17:46.373Z,22.95
2023-08-17T12:20:22.345Z,23.37
2023-08-17T12:22:49.093Z,23.87
2023-08-17T12:25:16.369Z,24.13
2023-08-17T12:27:43.090Z,24.37
2023-08-17T12:30:27.959Z,24.49
2023-08-17T12:32:56.008Z,24.32
2023-08-17T12:35:25.559Z,24.36
2023-08-17T12:37:53.922Z,24.46
2023-08-17T12:40:21.268Z,24.35
2023-08-17T12:42:48.361Z,25.33
2023-08-17T12:45:16.167Z,25.23
2023-08-17T12:47:42.978Z,24.46
2023-08-17T12:50:09.864Z,24.54
2023-08-17T12:52:36.557Z,23.94
2023-08-17T12:55:03.264Z,23.60
2023-08-17T12:57:29.786Z,23.66
2023-08-17T12:59:56.293Z,23.49
2023-08-17T13:02:22.859Z,24.10
2023-08-17T13:04:49.402Z,23.98
2023-08-17T13:07:16.890Z,23.88
2023-08-17T13:09:43.411Z,24.04
2023-08-17T13:12:09.893Z,24.43
2023-08-17T13:14:37.056Z,24.73
2023-08-17T13:17:03.793Z,24.78
2023-08-17T13:19:30.366Z,24.57
2023-08-17T13:21:56.874Z,23.73
2023-08-17T13:24:23.373Z,23.86
2023-08-17T13:26:53.799Z,23.55
2023-08-17T13:29:20.963Z,23.57
2023-08-17T13:31:49.131Z,24.56
2023-08-17T13:34:15.798Z,25.17
2023-08-17T13:36:42.522Z,24.70
2023-08-17T13:39:09.052Z,24.59
2023-08-17T13:41:35.605Z,23.96
2023-08-17T13:44:03.608Z,23.35
2023-08-17T13:46:31.256Z,23.23
2023-08-17T13:48:57.777Z,23.06
2023-08-17T13:51:24.238Z,23.29
2023-08-17T13:53:50.739Z,23.01
2023-08-17T13:56:18.304Z,23.00
2023-08-17T13:58:44.770Z,22.73
2023-08-17T14:01:12.805Z,22.90
2023-08-17T14:03:39.504Z,22.91
2023-08-17T14:06:06.150Z,22.70
2023-08-17T14:08:32.584Z,22.43
2023-08-17T14:10:59.067Z,22.56
2023-08-17T14:13:25.536Z,22.74
2023-08-17T14:15:52.119Z,22.64
2023-08-17T14:18:18.878Z,22.53
2023-08-17T14:20:45.458Z,22.42
2023-08-17T14:23:11.956Z,22.51
2023-08-17T14:25:38.442Z,22.68
2023-08-17T14:28:06.507Z,22.54
2023-08-17T14:30:33.044Z,22.31
2023-08-17T14:33:01.588Z,21.76
2023-08-17T14:35:28.990Z,21.56
2023-08-17T14:37:58.780Z,21.50
2023-08-17T14:40:25.459Z,21.62
2023-08-17T14:42:54.625Z,21.75
2023-08-17T14:45:21.422Z,21.87
2023-08-17T14:47:47.930Z,21.79
2023-08-17T14:50:15.192Z,21.52
2023-08-17T14:52:42.180Z,21.31
2023-08-17T14:55:10.220Z,21.32
2023-08-17T14:57:36.969Z,21.16
2023-08-17T15:00:05.211Z,21.25
2023-08-17T15:02:31.914Z,20.77
2023-08-17T15:04:58.429Z,20.84
2023-08-17T15:07:25.464Z,21.04
2023-08-17T15:09:53.956Z,21.16
2023-08-17T15:12:22.741Z,21.44
2023-08-17T15:14:50.694Z,21.47
2023-08-17T15:17:17.086Z,21.57
2023-08-17T15:19:43.585Z,21.50
2023-08-17T15:22:15.534Z,21.47
2023-08-17T15:24:44.440Z,21.12
2023-08-17T15:27:11.143Z,20.73
2023-08-17T15:29:37.613Z,20.74
2023-08-17T15:32:04.188Z,20.77
2023-08-17T15:34:30.710Z,20.78
2023-08-17T15:36:57.217Z,20.94
2023-08-17T15:39:23.727Z,21.17
2023-08-17T15:41:50.239Z,20.95
2023-08-17T15:44:16.914Z,20.72
2023-08-17T15:46:43.485Z,20.39
2023-08-17T15:49:10.066Z,20.46
2023-08-17T15:51:36.642Z,20.48
2023-08-17T15:54:03.238Z,20.29
2023-08-17T15:56:29.787Z,20.40
2023-08-17T15:58:56.328Z,20.36
2023-08-17T16:01:22.871Z,20.34
2023-08-17T16:03:49.567Z,20.32
2023-08-17T16:06:16.158Z,20.27
2023-08-17T16:08:49.094Z,20.28
2023-08-17T16:11:16.086Z,20.24
2023-08-17T16:16:12.245Z,19.80
2023-08-17T16:18:38.735Z,19.71
2023-08-17T16:21:13.854Z,19.65
2023-08-17T16:23:42.364Z,19.51
2023-08-17T16:26:09.177Z,19.54
2023-08-17T16:28:35.655Z,19.42
2023-08-17T16:31:05.258Z,19.55
2023-08-17T16:33:32.598Z,19.52
2023-08-17T16:35:59.554Z,19.52
2023-08-17T16:38:26.104Z,19.43
2023-08-17T16:40:52.686Z,19.39
2023-08-17T16:43:21.203Z,19.55
2023-08-17T16:45:47.987Z,19.40
2023-08-17T16:48:14.733Z,19.30
2023-08-17T16:50:41.292Z,19.36
2023-08-17T16:53:07.847Z,19.38
2023-08-17T16:55:35.156Z,19.30
2023-08-17T16:58:02.152Z,19.29
2023-08-17T17:00:28.853Z,19.12
2023-08-17T17:02:55.370Z,19.02
2023-08-17T17:05:21.953Z,18.93
2023-08-17T17:07:48.543Z,18.89
2023-08-17T17:10:16.474Z,18.84
2023-08-17T17:12:42.971Z,18.82
2023-08-17T17:15:09.940Z,18.73
2023-08-17T17:17:36.565Z,18.67
2023-08-17T17:20:04.660Z,18.57
2023-08-17T17:22:31.213Z,18.60
2023-08-17T17:24:57.673Z,18.55
2023-08-17T17:27:24.202Z,18.52
2023-08-17T17:29:50.671Z,18.40
2023-08-17T17:32:17.119Z,18.41
2023-08-17T17:34:43.587Z,18.34
2023-08-17T17:37:10.074Z,18.33
2023-08-17T17:39:36.602Z,18.25
2023-08-17T17:42:03.205Z,18.26
2023-08-17T17:44:29.802Z,18.21
2023-08-17T17:46:56.350Z,18.21
2023-08-17T17:49:23.177Z,18.20
2023-08-17T17:51:49.945Z,18.20
2023-08-17T17:54:16.513Z,18.18
2023-08-17T17:56:44.918Z,18.13
2023-08-17T17:59:11.912Z,18.10
2023-08-17T18:01:38.998Z,18.13
2023-08-17T18:04:05.916Z,18.09
2023-08-17T18:06:33.728Z,18.13
2023-08-17T18:09:00.217Z,18.15
2023-08-17T18:11:26.988Z,18.10
2023-08-17T18:13:53.644Z,18.08
2023-08-17T18:16:20.275Z,18.08
2023-08-17T18:18:47.006Z,18.02
2023-08-17T18:21:13.481Z,18.00
2023-08-17T18:23:39.958Z,17.96
2023-08-17T18:26:06.441Z,17.93
2023-08-17T18:28:33.054Z,17.88
2023-08-17T18:30:59.903Z,17.87
2023-08-17T18:33:26.429Z,17.83
2023-08-17T18:35:54.038Z,17.86
2023-08-17T18:38:23.297Z,17.83
2023-08-17T18:40:52.279Z,17.83
2023-08-17T18:43:20.618Z,17.84
2023-08-17T18:45:47.252Z,17.81
2023-08-17T18:48:13.889Z,17.83
2023-08-17T18:50:40.554Z,17.81
2023-08-17T18:53:08.100Z,17.80
2023-08-17T18:55:34.713Z,17.81
2023-08-17T18:58:01.786Z,17.77
2023-08-17T19:00:28.611Z,17.76
2023-08-17T19:02:55.262Z,17.75
2023-08-17T19:05:22.164Z,17.76
2023-08-17T19:07:49.101Z,17.71
2023-08-17T19:10:16.495Z,17.70
2023-08-17T19:12:43.136Z,17.67
2023-08-17T19:15:10.355Z,17.66
2023-08-17T19:17:37.290Z,17.62
2023-08-17T19:20:04.245Z,17.63
2023-08-17T19:22:30.997Z,17.59
2023-08-17T19:24:57.634Z,17.58
2023-08-17T19:27:24.473Z,17.55
2023-08-17T19:29:51.188Z,17.54
2023-08-17T19:32:17.864Z,17.54
2023-08-17T19:34:44.676Z,17.54
2023-08-17T19:37:11.437Z,17.54
2023-08-17T19:39:38.178Z,17.53
2023-08-17T19:42:05.064Z,17.50
2023-08-17T19:44:31.772Z,17.51
2023-08-17T19:46:58.352Z,17.53
2023-08-17T19:49:28.141Z,17.54
2023-08-17T19:51:55.332Z,17.52
2023-08-17T19:54:21.928Z,17.53
2023-08-17T19:56:49.016Z,17.58
2023-08-17T19:59:15.454Z,17.58
2023-08-17T20:01:41.990Z,17.59
2023-08-17T20:04:11.945Z,17.57
2023-08-17T20:06:38.596Z,17.59
2023-08-17T20:09:05.575Z,17.56
2023-08-17T20:11:32.163Z,17.54
2023-08-17T20:13:58.832Z,17.53
2023-08-17T20:16:25.479Z,17.53
2023-08-17T20:18:52.396Z,17.56
2023-08-17T20:21:19.045Z,17.54
2023-08-17T20:23:45.793Z,17.55
2023-08-17T20:26:12.684Z,17.54
2023-08-17T20:28:40.062Z,17.58
2023-08-17T20:31:07.508Z,17.59
2023-08-17T20:33:34.267Z,17.60
2023-08-17T20:36:00.857Z,17.58
2023-08-17T20:38:27.629Z,17.60
2023-08-17T20:40:54.541Z,17.60
2023-08-17T20:43:21.100Z,17.63
2023-08-17T20:45:47.815Z,17.63
2023-08-17T20:48:14.593Z,17.62
2023-08-17T20:50:43.397Z,17.62
2023-08-17T20:53:09.904Z,17.63
2023-08-17T20:55:39.278Z,17.67
2023-08-17T20:58:06.015Z,17.67
2023-08-17T21:00:33.750Z,17.65
2023-08-17T21:03:00.283Z,17.68
2023-08-17T21:05:28.768Z,17.66
2023-08-17T21:07:56.334Z,17.73
2023-08-17T21:10:24.486Z,17.73
2023-08-17T21:12:51.420Z,17.74
2023-08-17T21:15:17.957Z,17.76
2023-08-17T21:17:45.940Z,17.76
2023-08-17T21:20:12.890Z,17.73
2023-08-17T21:22:51.533Z,17.72
2023-08-17T21:25:19.247Z,17.72
2023-08-17T21:27:45.809Z,17.74
2023-08-17T21:30:12.404Z,17.75
2023-08-17T21:32:38.966Z,17.75
2023-08-17T21:35:06.373Z,17.75
2023-08-17T21:37:33.104Z,17.74
2023-08-17T21:39:59.688Z,17.72
2023-08-17T21:42:26.331Z,17.73
2023-08-17T21:44:52.826Z,17.73
2023-08-17T21:47:19.460Z,17.66
2023-08-17T21:49:48.034Z,17.61
2023-08-17T21:52:16.467Z,17.61
2023-08-17T21:54:43.191Z,17.58
2023-08-17T21:57:09.684Z,17.56
2023-08-17T21:59:36.148Z,17.53
2023-08-17T22:02:03.403Z,17.51
2023-08-17T22:04:33.396Z,17.48
2023-08-17T22:07:02.536Z,17.46
2023-08-17T22:09:29.760Z,17.44
2023-08-17T22:11:57.063Z,17.44
2023-08-17T22:14:23.655Z,17.42
2023-08-17T22:16:50.476Z,17.40
2023-08-17T22:19:17.359Z,17.39
2023-08-17T22:21:43.852Z,17.35
2023-08-17T22:24:10.895Z,17.33
2023-08-17T22:26:37.497Z,17.30
2023-08-17T22:29:04.554Z,17.30
2023-08-17T22:31:32.015Z,17.23
2023-08-17T22:33:58.495Z,17.22
2023-08-17T22:36:25.254Z,17.19
2023-08-17T22:38:51.933Z,17.16
2023-08-17T22:41:18.385Z,17.14
2023-08-17T22:43:44.906Z,17.13
2023-08-17T22:46:11.571Z,17.07
2023-08-17T22:48:38.109Z,17.06
2023-08-17T22:51:04.568Z,17.04
2023-08-17T22:53:31.099Z,17.02
2023-08-17T22:55:57.823Z,16.96
2023-08-17T22:58:24.267Z,16.93
2023-08-17T23:00:50.773Z,16.92
2023-08-17T23:03:17.389Z,16.90
2023-08-17T23:05:44.667Z,16.86
2023-08-17T23:08:11.174Z,16.82
2023-08-17T23:10:37.941Z,16.79
2023-08-17T23:13:04.608Z,16.75
2023-08-17T23:15:31.090Z,16.74
2023-08-17T23:17:57.604Z,16.74
2023-08-17T23:20:24.146Z,16.71
2023-08-17T23:22:50.642Z,16.67
2023-08-17T23:25:17.396Z,16.65
2023-08-17T23:27:43.992Z,16.65
2023-08-17T23:30:11.323Z,16.62
2023-08-17T23:32:38.118Z,16.63
2023-08-17T23:35:05.290Z,16.56
2023-08-17T23:37:32.073Z,16.54
2023-08-17T23:39:58.742Z,16.53
2023-08-17T23:42:25.210Z,16.52
2023-08-17T23:44:51.648Z,16.48
2023-08-17T23:47:18.191Z,16.46
2023-08-17T23:49:45.574Z,16.45
2023-08-17T23:52:12.426Z,16.44
2023-08-17T23:54:39.139Z,16.48
2023-08-17T23:57:05.838Z,16.45
2023-08-17T23:59:32.322Z,16.43
